sensor_id;sensor_type;location;lat;lon;timestamp;pressure;altitude;pressure_sealevel;temperature;humidity
38880;BME280;25887;30.194;-97.880;2024-01-30T00:00:41;99233.81;;;21.70;33.14
38880;BME280;25887;30.194;-97.880;2024-01-30T00:03:11;99238.34;;;21.65;33.38
38880;BME280;25887;30.194;-97.880;2024-01-30T00:05:37;99232.50;;;21.57;33.61
38880;BME280;25887;30.194;-97.880;2024-01-30T00:08:03;99233.50;;;21.53;33.76
38880;BME280;25887;30.194;-97.880;2024-01-30T00:10:29;99233.78;;;21.44;33.90
38880;BME280;25887;30.194;-97.880;2024-01-30T00:15:25;99239.38;;;21.32;33.94
38880;BME280;25887;30.194;-97.880;2024-01-30T00:17:51;99235.25;;;21.23;34.21
38880;BME280;25887;30.194;-97.880;2024-01-30T00:20:20;99235.47;;;21.15;34.34
38880;BME280;25887;30.194;-97.880;2024-01-30T00:22:47;99236.53;;;21.10;34.17
38880;BME280;25887;30.194;-97.880;2024-01-30T00:25:13;99245.44;;;21.03;34.42
38880;BME280;25887;30.194;-97.880;2024-01-30T00:27:39;99245.59;;;20.97;34.52
38880;BME280;25887;30.194;-97.880;2024-01-30T00:30:06;99244.91;;;20.90;34.49
38880;BME280;25887;30.194;-97.880;2024-01-30T00:32:32;99252.09;;;20.82;34.31
38880;BME280;25887;30.194;-97.880;2024-01-30T00:34:58;99256.63;;;20.75;34.78
38880;BME280;25887;30.194;-97.880;2024-01-30T00:37:24;99252.47;;;20.68;34.48
38880;BME280;25887;30.194;-97.880;2024-01-30T00:39:51;99249.22;;;20.60;34.61
38880;BME280;25887;30.194;-97.880;2024-01-30T00:42:17;99258.09;;;20.54;34.58
38880;BME280;25887;30.194;-97.880;2024-01-30T00:44:43;99253.94;;;20.47;35.17
38880;BME280;25887;30.194;-97.880;2024-01-30T00:47:12;99255.84;;;20.39;35.12
38880;BME280;25887;30.194;-97.880;2024-01-30T00:49:39;99248.16;;;20.33;35.09
38880;BME280;25887;30.194;-97.880;2024-01-30T00:52:05;99260.47;;;20.28;35.34
38880;BME280;25887;30.194;-97.880;2024-01-30T00:54:32;99261.50;;;20.21;35.12
38880;BME280;25887;30.194;-97.880;2024-01-30T00:56:58;99263.41;;;20.16;35.23
38880;BME280;25887;30.194;-97.880;2024-01-30T00:59:25;99262.63;;;20.11;35.11
38880;BME280;25887;30.194;-97.880;2024-01-30T01:01:51;99265.44;;;20.03;35.68
38880;BME280;25887;30.194;-97.880;2024-01-30T01:04:17;99269.94;;;19.96;35.40
38880;BME280;25887;30.194;-97.880;2024-01-30T01:06:45;99267.47;;;19.90;35.49
38880;BME280;25887;30.194;-97.880;2024-01-30T01:09:11;99265.00;;;19.84;35.76
38880;BME280;25887;30.194;-97.880;2024-01-30T01:11:38;99266.03;;;19.79;35.71
38880;BME280;25887;30.194;-97.880;2024-01-30T01:14:05;99273.94;;;19.74;35.74
38880;BME280;25887;30.194;-97.880;2024-01-30T01:16:31;99274.97;;;19.67;35.82
38880;BME280;25887;30.194;-97.880;2024-01-30T01:18:57;99273.38;;;19.61;36.02
38880;BME280;25887;30.194;-97.880;2024-01-30T01:21:24;99277.78;;;19.56;35.98
38880;BME280;25887;30.194;-97.880;2024-01-30T01:23:50;99273.56;;;19.51;35.88
38880;BME280;25887;30.194;-97.880;2024-01-30T01:26:16;99284.06;;;19.47;36.20
38880;BME280;25887;30.194;-97.880;2024-01-30T01:28:42;99284.19;;;19.41;36.12
38880;BME280;25887;30.194;-97.880;2024-01-30T01:31:09;99284.31;;;19.35;36.40
38880;BME280;25887;30.194;-97.880;2024-01-30T01:33:35;99286.19;;;19.30;36.37
38880;BME280;25887;30.194;-97.880;2024-01-30T01:36:02;99286.28;;;19.24;36.43
38880;BME280;25887;30.194;-97.880;2024-01-30T01:38:29;99289.88;;;19.18;36.21
38880;BME280;25887;30.194;-97.880;2024-01-30T01:40:55;99298.66;;;19.14;36.41
38880;BME280;25887;30.194;-97.880;2024-01-30T01:43:21;99289.25;;;19.06;36.41
38880;BME280;25887;30.194;-97.880;2024-01-30T01:45:47;99288.50;;;19.01;36.47
38880;BME280;25887;30.194;-97.880;2024-01-30T01:48:14;99285.13;;;18.96;36.55
38880;BME280;25887;30.194;-97.880;2024-01-30T01:50:42;99286.09;;;18.91;36.39
38880;BME280;25887;30.194;-97.880;2024-01-30T01:53:09;99295.72;;;18.86;36.56
38880;BME280;25887;30.194;-97.880;2024-01-30T01:55:36;99292.34;;;18.81;36.70
38880;BME280;25887;30.194;-97.880;2024-01-30T01:58:05;99295.94;;;18.76;36.88
38880;BME280;25887;30.194;-97.880;2024-01-30T02:00:34;99288.19;;;18.71;36.70
38880;BME280;25887;30.194;-97.880;2024-01-30T02:03:05;99299.53;;;18.69;36.54
38880;BME280;25887;30.194;-97.880;2024-01-30T02:05:34;99298.66;;;18.65;36.76
38880;BME280;25887;30.194;-97.880;2024-01-30T02:08:02;99305.72;;;18.60;36.68
38880;BME280;25887;30.194;-97.880;2024-01-30T02:10:53;99309.19;;;18.59;36.67
38880;BME280;25887;30.194;-97.880;2024-01-30T02:13:43;99313.66;;;18.52;36.76
38880;BME280;25887;30.194;-97.880;2024-01-30T02:16:10;99318.03;;;18.49;37.03
38880;BME280;25887;30.194;-97.880;2024-01-30T02:18:36;99325.03;;;18.47;36.85
38880;BME280;25887;30.194;-97.880;2024-01-30T02:21:08;99308.63;;;18.42;36.81
38880;BME280;25887;30.194;-97.880;2024-01-30T02:23:34;99321.69;;;18.38;37.05
38880;BME280;25887;30.194;-97.880;2024-01-30T02:26:00;99320.88;;;18.36;36.95
38880;BME280;25887;30.194;-97.880;2024-01-30T02:28:27;99313.94;;;18.34;36.96
38880;BME280;25887;30.194;-97.880;2024-01-30T02:30:53;99325.28;;;18.31;37.16
38880;BME280;25887;30.194;-97.880;2024-01-30T02:33:19;99320.09;;;18.28;37.12
38880;BME280;25887;30.194;-97.880;2024-01-30T02:35:47;99332.28;;;18.26;37.21
38880;BME280;25887;30.194;-97.880;2024-01-30T02:38:15;99326.28;;;18.23;37.09
38880;BME280;25887;30.194;-97.880;2024-01-30T02:40:42;99331.53;;;18.20;37.37
38880;BME280;25887;30.194;-97.880;2024-01-30T02:43:10;99339.34;;;18.18;37.21
38880;BME280;25887;30.194;-97.880;2024-01-30T02:45:36;99335.94;;;18.13;37.34
38880;BME280;25887;30.194;-97.880;2024-01-30T02:48:03;99340.34;;;18.09;37.27
38880;BME280;25887;30.194;-97.880;2024-01-30T02:50:29;99331.69;;;18.09;37.66
38880;BME280;25887;30.194;-97.880;2024-01-30T02:52:55;99336.06;;;18.07;37.52
38880;BME280;25887;30.194;-97.880;2024-01-30T02:55:21;99336.97;;;18.06;37.54
38880;BME280;25887;30.194;-97.880;2024-01-30T02:57:47;99333.50;;;18.05;37.43
38880;BME280;25887;30.194;-97.880;2024-01-30T03:00:14;99338.69;;;18.04;37.65
38880;BME280;25887;30.194;-97.880;2024-01-30T03:02:40;99324.03;;;18.00;37.50
38880;BME280;25887;30.194;-97.880;2024-01-30T03:05:08;99323.16;;;18.01;37.26
38880;BME280;25887;30.194;-97.880;2024-01-30T03:07:34;99324.91;;;18.00;37.35
38880;BME280;25887;30.194;-97.880;2024-01-30T03:10:01;99339.63;;;18.00;37.55
38880;BME280;25887;30.194;-97.880;2024-01-30T03:12:29;99333.59;;;17.98;37.64
38880;BME280;25887;30.194;-97.880;2024-01-30T03:14:56;99334.47;;;17.97;37.66
38880;BME280;25887;30.194;-97.880;2024-01-30T03:17:22;99336.22;;;17.95;37.52
38880;BME280;25887;30.194;-97.880;2024-01-30T03:19:50;99338.84;;;17.95;37.77
38880;BME280;25887;30.194;-97.880;2024-01-30T03:22:16;99338.00;;;17.93;37.82
38880;BME280;25887;30.194;-97.880;2024-01-30T03:24:43;99338.00;;;17.93;37.77
38880;BME280;25887;30.194;-97.880;2024-01-30T03:27:10;99330.22;;;17.91;37.81
38880;BME280;25887;30.194;-97.880;2024-01-30T03:29:37;99331.97;;;17.89;37.79
38880;BME280;25887;30.194;-97.880;2024-01-30T03:32:03;99336.31;;;17.89;37.91
38880;BME280;25887;30.194;-97.880;2024-01-30T03:34:30;99338.94;;;17.87;37.91
38880;BME280;25887;30.194;-97.880;2024-01-30T03:36:56;99340.66;;;17.88;37.60
38880;BME280;25887;30.194;-97.880;2024-01-30T03:39:23;99342.44;;;17.86;38.07
38880;BME280;25887;30.194;-97.880;2024-01-30T03:41:49;99336.38;;;17.86;37.69
38880;BME280;25887;30.194;-97.880;2024-01-30T03:44:16;99334.69;;;17.81;37.85
38880;BME280;25887;30.194;-97.880;2024-01-30T03:46:55;99339.06;;;17.79;37.87
38880;BME280;25887;30.194;-97.880;2024-01-30T03:49:24;99335.66;;;17.76;38.09
38880;BME280;25887;30.194;-97.880;2024-01-30T03:51:51;99348.66;;;17.74;37.69
38880;BME280;25887;30.194;-97.880;2024-01-30T03:54:17;99340.91;;;17.71;38.03
38880;BME280;25887;30.194;-97.880;2024-01-30T03:56:43;99347.84;;;17.68;38.06
38880;BME280;25887;30.194;-97.880;2024-01-30T03:59:09;99351.28;;;17.70;37.99
38880;BME280;25887;30.194;-97.880;2024-01-30T04:01:35;99344.41;;;17.66;38.07
38880;BME280;25887;30.194;-97.880;2024-01-30T04:04:02;99345.25;;;17.66;37.93
38880;BME280;25887;30.194;-97.880;2024-01-30T04:06:28;99347.03;;;17.64;38.00
38880;BME280;25887;30.194;-97.880;2024-01-30T04:08:54;99343.59;;;17.62;38.05
38880;BME280;25887;30.194;-97.880;2024-01-30T04:11:20;99341.91;;;17.60;38.18
38880;BME280;25887;30.194;-97.880;2024-01-30T04:13:47;99345.38;;;17.57;38.17
38880;BME280;25887;30.194;-97.880;2024-01-30T04:16:23;99354.88;;;17.58;38.10
38880;BME280;25887;30.194;-97.880;2024-01-30T04:18:50;99345.44;;;17.52;38.19
38880;BME280;25887;30.194;-97.880;2024-01-30T04:21:17;99344.63;;;17.49;38.25
38880;BME280;25887;30.194;-97.880;2024-01-30T04:23:45;99345.50;;;17.48;38.37
38880;BME280;25887;30.194;-97.880;2024-01-30T04:26:12;99340.34;;;17.45;38.18
38880;BME280;25887;30.194;-97.880;2024-01-30T04:28:41;99346.44;;;17.42;38.09
38880;BME280;25887;30.194;-97.880;2024-01-30T04:31:08;99343.88;;;17.39;38.33
38880;BME280;25887;30.194;-97.880;2024-01-30T04:33:34;99343.06;;;17.36;38.14
38880;BME280;25887;30.194;-97.880;2024-01-30T04:36:00;99345.66;;;17.36;38.24
38880;BME280;25887;30.194;-97.880;2024-01-30T04:38:26;99346.53;;;17.33;38.14
38880;BME280;25887;30.194;-97.880;2024-01-30T04:40:53;99339.63;;;17.32;38.20
38880;BME280;25887;30.194;-97.880;2024-01-30T04:43:19;99339.66;;;17.31;38.37
38880;BME280;25887;30.194;-97.880;2024-01-30T04:45:45;99344.00;;;17.30;38.61
38880;BME280;25887;30.194;-97.880;2024-01-30T04:48:11;99338.81;;;17.27;38.43
38880;BME280;25887;30.194;-97.880;2024-01-30T04:50:38;99341.44;;;17.25;38.69
38880;BME280;25887;30.194;-97.880;2024-01-30T04:53:04;99344.06;;;17.24;38.40
38880;BME280;25887;30.194;-97.880;2024-01-30T04:55:30;99342.38;;;17.21;38.47
38880;BME280;25887;30.194;-97.880;2024-01-30T04:57:57;99338.91;;;17.19;38.36
38880;BME280;25887;30.194;-97.880;2024-01-30T05:00:23;99332.91;;;17.16;38.55
38880;BME280;25887;30.194;-97.880;2024-01-30T05:02:51;99331.22;;;17.13;38.43
38880;BME280;25887;30.194;-97.880;2024-01-30T05:05:17;99335.53;;;17.11;38.71
38880;BME280;25887;30.194;-97.880;2024-01-30T05:07:43;99328.66;;;17.07;38.68
38880;BME280;25887;30.194;-97.880;2024-01-30T05:10:09;99328.69;;;17.06;38.80
38880;BME280;25887;30.194;-97.880;2024-01-30T05:12:35;99326.13;;;17.03;38.41
38880;BME280;25887;30.194;-97.880;2024-01-30T05:15:02;99334.81;;;17.00;38.75
38880;BME280;25887;30.194;-97.880;2024-01-30T05:17:28;99333.97;;;16.98;38.89
38880;BME280;25887;30.194;-97.880;2024-01-30T05:19:54;99331.38;;;16.95;38.61
38880;BME280;25887;30.194;-97.880;2024-01-30T05:22:21;99332.25;;;16.95;38.86
38880;BME280;25887;30.194;-97.880;2024-01-30T05:24:47;99335.75;;;16.93;38.81
38880;BME280;25887;30.194;-97.880;2024-01-30T05:27:13;99332.34;;;16.89;38.70
38880;BME280;25887;30.194;-97.880;2024-01-30T05:29:40;99332.31;;;16.88;38.84
38880;BME280;25887;30.194;-97.880;2024-01-30T05:32:06;99333.19;;;16.88;38.73
38880;BME280;25887;30.194;-97.880;2024-01-30T05:34:33;99340.09;;;16.88;38.89
38880;BME280;25887;30.194;-97.880;2024-01-30T05:36:59;99333.19;;;16.87;38.91
38880;BME280;25887;30.194;-97.880;2024-01-30T05:39:26;99328.88;;;16.86;38.98
38880;BME280;25887;30.194;-97.880;2024-01-30T05:41:52;99330.63;;;16.85;38.86
38880;BME280;25887;30.194;-97.880;2024-01-30T05:44:18;99326.28;;;16.86;39.01
38880;BME280;25887;30.194;-97.880;2024-01-30T05:46:44;99325.44;;;16.85;38.80
38880;BME280;25887;30.194;-97.880;2024-01-30T05:49:11;99321.97;;;16.85;38.92
38880;BME280;25887;30.194;-97.880;2024-01-30T05:51:39;99321.13;;;16.84;39.19
38880;BME280;25887;30.194;-97.880;2024-01-30T05:54:05;99323.75;;;16.83;39.14
38880;BME280;25887;30.194;-97.880;2024-01-30T05:56:31;99327.19;;;16.85;39.10
38880;BME280;25887;30.194;-97.880;2024-01-30T05:58:57;99325.47;;;16.84;39.07
38880;BME280;25887;30.194;-97.880;2024-01-30T06:01:23;99325.47;;;16.84;39.22
38880;BME280;25887;30.194;-97.880;2024-01-30T06:03:52;99319.44;;;16.82;39.04
38880;BME280;25887;30.194;-97.880;2024-01-30T06:06:18;99319.44;;;16.82;39.08
38880;BME280;25887;30.194;-97.880;2024-01-30T06:08:44;99317.69;;;16.82;38.84
38880;BME280;25887;30.194;-97.880;2024-01-30T06:11:11;99315.97;;;16.80;38.98
38880;BME280;25887;30.194;-97.880;2024-01-30T06:13:39;99309.91;;;16.81;39.12
38880;BME280;25887;30.194;-97.880;2024-01-30T06:16:09;99302.13;;;16.79;39.12
38880;BME280;25887;30.194;-97.880;2024-01-30T06:18:36;99315.09;;;16.81;39.00
38880;BME280;25887;30.194;-97.880;2024-01-30T06:21:04;99316.84;;;16.82;39.03
38880;BME280;25887;30.194;-97.880;2024-01-30T06:23:32;99314.25;;;16.82;39.10
38880;BME280;25887;30.194;-97.880;2024-01-30T06:25:58;99319.41;;;16.80;38.88
38880;BME280;25887;30.194;-97.880;2024-01-30T06:28:24;99317.69;;;16.81;39.18
38880;BME280;25887;30.194;-97.880;2024-01-30T06:30:50;99319.41;;;16.80;39.12
38880;BME280;25887;30.194;-97.880;2024-01-30T06:33:18;99314.22;;;16.80;39.07
38880;BME280;25887;30.194;-97.880;2024-01-30T06:35:44;99316.84;;;16.79;38.95
38880;BME280;25887;30.194;-97.880;2024-01-30T06:38:11;99312.53;;;16.78;39.01
38880;BME280;25887;30.194;-97.880;2024-01-30T06:40:39;99311.66;;;16.79;39.08
38880;BME280;25887;30.194;-97.880;2024-01-30T06:43:05;99310.81;;;16.77;38.87
38880;BME280;25887;30.194;-97.880;2024-01-30T06:45:33;99315.19;;;16.75;39.23
38880;BME280;25887;30.194;-97.880;2024-01-30T06:48:00;99311.72;;;16.74;39.11
38880;BME280;25887;30.194;-97.880;2024-01-30T06:50:28;99314.31;;;16.71;39.03
38880;BME280;25887;30.194;-97.880;2024-01-30T06:52:54;99309.13;;;16.71;38.87
38880;BME280;25887;30.194;-97.880;2024-01-30T06:55:20;99302.25;;;16.67;39.05
38880;BME280;25887;30.194;-97.880;2024-01-30T06:57:47;99310.91;;;16.64;38.99
38880;BME280;25887;30.194;-97.880;2024-01-30T07:00:13;99317.81;;;16.64;39.14
38880;BME280;25887;30.194;-97.880;2024-01-30T07:02:41;99320.47;;;16.59;39.02
38880;BME280;25887;30.194;-97.880;2024-01-30T07:05:07;99319.59;;;16.57;39.01
38880;BME280;25887;30.194;-97.880;2024-01-30T07:07:34;99300.63;;;16.54;39.05
38880;BME280;25887;30.194;-97.880;2024-01-30T07:10:00;99306.72;;;16.51;39.47
38880;BME280;25887;30.194;-97.880;2024-01-30T07:12:27;99307.59;;;16.47;39.53
38880;BME280;25887;30.194;-97.880;2024-01-30T07:14:53;99311.94;;;16.45;39.39
38880;BME280;25887;30.194;-97.880;2024-01-30T07:17:19;99310.25;;;16.41;39.52
38880;BME280;25887;30.194;-97.880;2024-01-30T07:19:45;99308.53;;;16.40;39.66
38880;BME280;25887;30.194;-97.880;2024-01-30T07:22:12;99293.91;;;16.34;39.65
38880;BME280;25887;30.194;-97.880;2024-01-30T07:24:43;99298.22;;;16.32;39.73
38880;BME280;25887;30.194;-97.880;2024-01-30T07:27:15;99300.00;;;16.29;39.52
38880;BME280;25887;30.194;-97.880;2024-01-30T07:29:43;99294.81;;;16.26;39.86
38880;BME280;25887;30.194;-97.880;2024-01-30T07:32:09;99287.09;;;16.21;39.90
38880;BME280;25887;30.194;-97.880;2024-01-30T07:34:35;99288.84;;;16.19;39.89
38880;BME280;25887;30.194;-97.880;2024-01-30T07:37:02;99278.47;;;16.16;39.94
38880;BME280;25887;30.194;-97.880;2024-01-30T07:39:28;99280.22;;;16.14;39.89
38880;BME280;25887;30.194;-97.880;2024-01-30T07:41:54;99272.47;;;16.12;39.96
38880;BME280;25887;30.194;-97.880;2024-01-30T07:44:20;99274.19;;;16.10;40.01
38880;BME280;25887;30.194;-97.880;2024-01-30T07:46:47;99274.19;;;16.10;39.97
38880;BME280;25887;30.194;-97.880;2024-01-30T07:49:13;99261.25;;;16.09;39.99
38880;BME280;25887;30.194;-97.880;2024-01-30T07:51:40;99262.09;;;16.09;39.90
38880;BME280;25887;30.194;-97.880;2024-01-30T07:54:12;99265.56;;;16.11;40.31
38880;BME280;25887;30.194;-97.880;2024-01-30T07:56:41;99264.69;;;16.09;40.03
38880;BME280;25887;30.194;-97.880;2024-01-30T07:59:11;99256.94;;;16.09;40.10
38880;BME280;25887;30.194;-97.880;2024-01-30T08:01:38;99262.09;;;16.09;40.01
38880;BME280;25887;30.194;-97.880;2024-01-30T08:04:04;99262.13;;;16.08;39.87
38880;BME280;25887;30.194;-97.880;2024-01-30T08:06:30;99258.69;;;16.06;39.96
38880;BME280;25887;30.194;-97.880;2024-01-30T08:08:57;99263.03;;;16.04;39.86
38880;BME280;25887;30.194;-97.880;2024-01-30T08:11:24;99261.28;;;16.03;40.21
38880;BME280;25887;30.194;-97.880;2024-01-30T08:13:53;99268.22;;;16.01;39.98
38880;BME280;25887;30.194;-97.880;2024-01-30T08:16:19;99260.47;;;15.99;39.92
38880;BME280;25887;30.194;-97.880;2024-01-30T08:18:45;99250.16;;;15.96;40.20
38880;BME280;25887;30.194;-97.880;2024-01-30T08:21:11;99244.97;;;15.96;39.97
38880;BME280;25887;30.194;-97.880;2024-01-30T08:23:40;99244.09;;;15.96;40.07
38880;BME280;25887;30.194;-97.880;2024-01-30T08:26:07;99235.44;;;15.94;40.11
38880;BME280;25887;30.194;-97.880;2024-01-30T08:28:33;99244.97;;;15.93;40.38
38880;BME280;25887;30.194;-97.880;2024-01-30T08:30:59;99243.28;;;15.89;40.04
38880;BME280;25887;30.194;-97.880;2024-01-30T08:33:25;99248.47;;;15.89;40.15
38880;BME280;25887;30.194;-97.880;2024-01-30T08:35:51;99248.47;;;15.86;40.16
38880;BME280;25887;30.194;-97.880;2024-01-30T08:38:18;99246.75;;;15.85;40.02
38880;BME280;25887;30.194;-97.880;2024-01-30T08:40:44;99235.59;;;15.80;39.94
38880;BME280;25887;30.194;-97.880;2024-01-30T08:43:10;99226.94;;;15.78;40.11
38880;BME280;25887;30.194;-97.880;2024-01-30T08:45:37;99235.59;;;15.75;40.15
38880;BME280;25887;30.194;-97.880;2024-01-30T08:48:04;99221.81;;;15.73;40.08
38880;BME280;25887;30.194;-97.880;2024-01-30T08:50:30;99226.16;;;15.68;40.31
38880;BME280;25887;30.194;-97.880;2024-01-30T08:52:56;99228.75;;;15.67;40.07
38880;BME280;25887;30.194;-97.880;2024-01-30T08:55:22;99221.00;;;15.64;40.25
38880;BME280;25887;30.194;-97.880;2024-01-30T08:57:48;99221.88;;;15.63;40.17
38880;BME280;25887;30.194;-97.880;2024-01-30T09:00:15;99214.09;;;15.59;40.22
38880;BME280;25887;30.194;-97.880;2024-01-30T09:02:42;99222.75;;;15.58;40.29
38880;BME280;25887;30.194;-97.880;2024-01-30T09:05:08;99218.41;;;15.59;40.30
38880;BME280;25887;30.194;-97.880;2024-01-30T09:07:34;99218.41;;;15.59;40.25
38880;BME280;25887;30.194;-97.880;2024-01-30T09:10:00;99227.94;;;15.57;40.18
38880;BME280;25887;30.194;-97.880;2024-01-30T09:12:26;99226.19;;;15.57;40.15
38880;BME280;25887;30.194;-97.880;2024-01-30T09:14:53;99234.84;;;15.56;40.18
38880;BME280;25887;30.194;-97.880;2024-01-30T09:17:19;99233.13;;;15.57;40.17
38880;BME280;25887;30.194;-97.880;2024-01-30T09:19:48;99225.34;;;15.55;40.21
38880;BME280;25887;30.194;-97.880;2024-01-30T09:22:14;99222.75;;;15.54;40.27
38880;BME280;25887;30.194;-97.880;2024-01-30T09:24:41;99221.88;;;15.55;40.29
38880;BME280;25887;30.194;-97.880;2024-01-30T09:27:07;99230.53;;;15.54;40.33
38880;BME280;25887;30.194;-97.880;2024-01-30T09:29:35;99215.00;;;15.52;40.26
38880;BME280;25887;30.194;-97.880;2024-01-30T09:32:02;99221.03;;;15.53;40.44
38880;BME280;25887;30.194;-97.880;2024-01-30T09:34:29;99213.28;;;15.53;40.01
38880;BME280;25887;30.194;-97.880;2024-01-30T09:36:55;99213.28;;;15.51;40.37
38880;BME280;25887;30.194;-97.880;2024-01-30T09:39:22;99221.91;;;15.53;40.28
38880;BME280;25887;30.194;-97.880;2024-01-30T09:42:33;99222.75;;;15.58;40.33
38880;BME280;25887;30.194;-97.880;2024-01-30T09:45:02;99221.03;;;15.54;40.36
38880;BME280;25887;30.194;-97.880;2024-01-30T09:47:40;99220.16;;;15.54;40.37
38880;BME280;25887;30.194;-97.880;2024-01-30T09:50:09;99221.91;;;15.53;40.23
38880;BME280;25887;30.194;-97.880;2024-01-30T09:52:36;99217.56;;;15.54;40.23
38880;BME280;25887;30.194;-97.880;2024-01-30T09:55:05;99219.28;;;15.55;40.49
38880;BME280;25887;30.194;-97.880;2024-01-30T09:57:32;99221.03;;;15.54;39.97
38880;BME280;25887;30.194;-97.880;2024-01-30T09:59:58;99208.94;;;15.53;40.24
38880;BME280;25887;30.194;-97.880;2024-01-30T10:02:26;99196.88;;;15.52;40.30
38880;BME280;25887;30.194;-97.880;2024-01-30T10:04:52;99205.50;;;15.54;40.16
38880;BME280;25887;30.194;-97.880;2024-01-30T10:07:19;99201.16;;;15.55;40.34
38880;BME280;25887;30.194;-97.880;2024-01-30T10:09:47;99200.31;;;15.54;40.37
38880;BME280;25887;30.194;-97.880;2024-01-30T10:12:15;99196.84;;;15.55;40.26
38880;BME280;25887;30.194;-97.880;2024-01-30T10:14:43;99191.69;;;15.57;40.30
38880;BME280;25887;30.194;-97.880;2024-01-30T10:17:09;99196.00;;;15.56;40.32
38880;BME280;25887;30.194;-97.880;2024-01-30T10:19:40;99202.03;;;15.55;40.19
38880;BME280;25887;30.194;-97.880;2024-01-30T10:22:07;99201.16;;;15.55;40.32
38880;BME280;25887;30.194;-97.880;2024-01-30T10:24:34;99196.03;;;15.52;40.19
38880;BME280;25887;30.194;-97.880;2024-01-30T10:27:00;99194.28;;;15.54;40.43
38880;BME280;25887;30.194;-97.880;2024-01-30T10:29:27;99193.44;;;15.52;40.29
38880;BME280;25887;30.194;-97.880;2024-01-30T10:32:03;99194.28;;;15.54;40.33
38880;BME280;25887;30.194;-97.880;2024-01-30T10:34:30;99195.16;;;15.53;40.44
38880;BME280;25887;30.194;-97.880;2024-01-30T10:37:09;99202.06;;;15.52;40.28
38880;BME280;25887;30.194;-97.880;2024-01-30T10:39:43;99199.50;;;15.49;40.24
38880;BME280;25887;30.194;-97.880;2024-01-30T10:42:14;99197.78;;;15.47;40.34
38880;BME280;25887;30.194;-97.880;2024-01-30T10:45:08;99202.94;;;15.50;40.26
38880;BME280;25887;30.194;-97.880;2024-01-30T10:47:36;99203.81;;;15.47;40.38
38880;BME280;25887;30.194;-97.880;2024-01-30T10:50:03;99191.75;;;15.45;40.13
38880;BME280;25887;30.194;-97.880;2024-01-30T10:52:35;99204.69;;;15.45;40.26
38880;BME280;25887;30.194;-97.880;2024-01-30T10:55:04;99209.88;;;15.43;40.32
38880;BME280;25887;30.194;-97.880;2024-01-30T10:57:34;99212.47;;;15.43;40.17
38880;BME280;25887;30.194;-97.880;2024-01-30T11:00:10;99211.59;;;15.44;40.28
38880;BME280;25887;30.194;-97.880;2024-01-30T11:02:45;99207.31;;;15.43;40.22
38880;BME280;25887;30.194;-97.880;2024-01-30T11:05:12;99210.75;;;15.39;40.18
38880;BME280;25887;30.194;-97.880;2024-01-30T11:07:39;99205.63;;;15.36;40.21
38880;BME280;25887;30.194;-97.880;2024-01-30T11:10:09;99205.63;;;15.36;40.26
38880;BME280;25887;30.194;-97.880;2024-01-30T11:12:39;99203.06;;;15.33;40.31
38880;BME280;25887;30.194;-97.880;2024-01-30T11:15:18;99201.31;;;15.30;40.36
38880;BME280;25887;30.194;-97.880;2024-01-30T11:20:25;99203.94;;;15.24;40.33
38880;BME280;25887;30.194;-97.880;2024-01-30T11:22:56;99204.00;;;15.20;40.35
38880;BME280;25887;30.194;-97.880;2024-01-30T11:25:23;99200.56;;;15.15;40.18
38880;BME280;25887;30.194;-97.880;2024-01-30T11:27:51;99206.63;;;15.12;40.53
38880;BME280;25887;30.194;-97.880;2024-01-30T11:30:28;99209.22;;;15.11;40.62
38880;BME280;25887;30.194;-97.880;2024-01-30T11:33:07;99206.63;;;15.06;40.28
38880;BME280;25887;30.194;-97.880;2024-01-30T11:35:42;99210.97;;;15.02;40.63
38880;BME280;25887;30.194;-97.880;2024-01-30T11:38:13;99208.38;;;14.99;40.59
38880;BME280;25887;30.194;-97.880;2024-01-30T11:40:39;99204.97;;;14.94;40.54
38880;BME280;25887;30.194;-97.880;2024-01-30T11:43:10;99211.00;;;14.92;40.82
38880;BME280;25887;30.194;-97.880;2024-01-30T11:45:37;99206.72;;;14.86;40.54
38880;BME280;25887;30.194;-97.880;2024-01-30T11:48:05;99211.91;;;14.82;40.67
38880;BME280;25887;30.194;-97.880;2024-01-30T11:50:33;99220.56;;;14.79;40.64
38880;BME280;25887;30.194;-97.880;2024-01-30T11:53:01;99222.28;;;14.77;40.80
38880;BME280;25887;30.194;-97.880;2024-01-30T11:55:29;99215.41;;;14.73;40.82
38880;BME280;25887;30.194;-97.880;2024-01-30T11:57:56;99224.03;;;14.72;40.89
38880;BME280;25887;30.194;-97.880;2024-01-30T12:00:23;99219.72;;;14.68;40.66
38880;BME280;25887;30.194;-97.880;2024-01-30T12:02:50;99218.00;;;14.67;40.69
38880;BME280;25887;30.194;-97.880;2024-01-30T12:05:18;99217.16;;;14.63;40.76
38880;BME280;25887;30.194;-97.880;2024-01-30T12:07:45;99222.31;;;14.62;40.71
38880;BME280;25887;30.194;-97.880;2024-01-30T12:10:14;99219.75;;;14.59;40.91
38880;BME280;25887;30.194;-97.880;2024-01-30T12:12:44;99212.00;;;14.53;40.88
38880;BME280;25887;30.194;-97.880;2024-01-30T12:15:11;99212.88;;;14.52;40.88
38880;BME280;25887;30.194;-97.880;2024-01-30T12:17:38;99209.44;;;14.49;41.26
38880;BME280;25887;30.194;-97.880;2024-01-30T12:20:12;99204.25;;;14.46;41.18
38880;BME280;25887;30.194;-97.880;2024-01-30T12:22:42;99205.09;;;14.44;40.91
38880;BME280;25887;30.194;-97.880;2024-01-30T12:25:12;99212.88;;;14.42;41.18
38880;BME280;25887;30.194;-97.880;2024-01-30T12:27:41;99210.28;;;14.39;40.98
38880;BME280;25887;30.194;-97.880;2024-01-30T12:30:10;99211.13;;;14.38;41.01
38880;BME280;25887;30.194;-97.880;2024-01-30T12:32:43;99212.88;;;14.36;41.15
38880;BME280;25887;30.194;-97.880;2024-01-30T12:35:15;99223.22;;;14.35;41.16
38880;BME280;25887;30.194;-97.880;2024-01-30T12:37:43;99224.06;;;14.31;41.27
38880;BME280;25887;30.194;-97.880;2024-01-30T12:40:13;99227.53;;;14.30;41.09
38880;BME280;25887;30.194;-97.880;2024-01-30T12:42:43;99228.41;;;14.27;41.39
38880;BME280;25887;30.194;-97.880;2024-01-30T12:45:14;99239.59;;;14.28;41.47
38880;BME280;25887;30.194;-97.880;2024-01-30T12:47:41;99241.34;;;14.26;41.54